Time;durP1;ratioP1;P1;durP2;ratioP2;P2;SDS_P1;SDS_P2;PMS_P1;PMS_P2;Temp;Humidity;BMP_temperature;BMP_pressure;BME280_temperature;BME280_humidity;BME280_pressure;Samples;Min_cycle;Max_cycle;Signal;HPM_P1;HPM_P2
2021/12/29 00:00:27;;;;;;;10.13;6.47;;;;;;;-5.54;83.65;99579.33;1756148;81;21033;-77
2021/12/29 00:02:55;;;;;;;7.63;5.60;;;;;;;-5.51;83.64;99582.11;1756189;80;21043;-76
2021/12/29 00:05:23;;;;;;;8.30;5.87;;;;;;;-5.46;83.59;99574.14;1756142;81;21229;-73
2021/12/29 00:07:50;;;;;;;12.03;7.00;;;;;;;-5.40;83.48;99579.27;1736527;82;21540;-77
2021/12/29 00:10:18;;;;;;;12.57;6.13;;;;;;;-5.36;83.30;99582.75;1756236;81;21600;-75
2021/12/29 00:12:49;;;;;;;7.60;5.40;;;;;;;-5.33;82.99;99583.78;1756122;80;21023;-75
2021/12/29 00:15:16;;;;;;;10.53;6.27;;;;;;;-5.45;82.69;99587.59;1744955;81;21021;-76
2021/12/29 00:17:44;;;;;;;12.60;5.73;;;;;;;-5.50;82.85;99587.70;1731917;81;21076;-73
2021/12/29 00:20:11;;;;;;;8.97;5.70;;;;;;;-5.56;82.88;99589.11;1724384;82;21017;-70
2021/12/29 00:22:37;;;;;;;8.93;5.87;;;;;;;-5.58;82.97;99591.56;1732447;81;21600;-77
2021/12/29 00:25:06;;;;;;;13.40;5.33;;;;;;;-5.64;83.07;99588.22;1756091;81;21505;-83
2021/12/29 00:27:33;;;;;;;9.80;5.93;;;;;;;-5.66;83.19;99584.94;1734854;81;21026;-78
2021/12/29 00:30:00;;;;;;;9.53;5.57;;;;;;;-5.65;83.09;99572.98;1736462;82;21628;-76
2021/12/29 00:32:45;;;;;;;8.93;6.07;;;;;;;-5.67;83.12;99580.19;1743609;80;21049;-77
2021/12/29 00:35:30;;;;;;;7.33;5.73;;;;;;;-5.65;82.98;99577.40;1745198;81;21063;-75
2021/12/29 00:38:15;;;;;;;8.40;5.60;;;;;;;-5.68;82.95;99571.98;1738424;81;21105;-75
2021/12/29 00:41:00;;;;;;;8.93;5.80;;;;;;;-5.69;82.95;99573.44;1734056;81;21117;-78
2021/12/29 00:43:46;;;;;;;10.00;6.93;;;;;;;-5.75;83.08;99557.83;1679340;84;22655;-76
2021/12/29 00:46:33;;;;;;;6.50;4.83;;;;;;;-5.72;83.08;99570.16;1675112;84;21027;-76
2021/12/29 00:48:59;;;;;;;8.20;5.73;;;;;;;-5.72;83.02;99566.23;1696292;84;21006;-76
2021/12/29 00:51:25;;;;;;;8.40;5.87;;;;;;;-5.76;83.07;99566.20;1677652;84;21040;-76
2021/12/29 00:53:52;;;;;;;8.43;5.87;;;;;;;-5.82;83.28;99559.41;1698445;84;21095;-76
2021/12/29 00:56:18;;;;;;;8.73;5.30;;;;;;;-5.78;83.32;99556.83;1699005;83;22361;-74
2021/12/29 00:58:45;;;;;;;10.83;7.87;;;;;;;-5.77;83.29;99551.45;1714496;83;21521;-75
2021/12/29 01:01:11;;;;;;;9.63;6.10;;;;;;;-5.74;83.26;99550.31;1684539;85;20977;-75
2021/12/29 01:03:38;;;;;;;13.47;6.87;;;;;;;-5.76;83.27;99545.73;1714443;83;21049;-77
2021/12/29 01:06:05;;;;;;;10.40;6.60;;;;;;;-5.78;83.30;99538.50;1714236;83;20998;-79
2021/12/29 01:08:32;;;;;;;10.33;5.97;;;;;;;-5.79;83.34;99531.13;1712777;83;21054;-76
2021/12/29 01:10:58;;;;;;;10.83;5.03;;;;;;;-5.76;83.41;99533.95;1704325;83;21057;-77
2021/12/29 01:13:31;;;;;;;8.97;5.53;;;;;;;-5.70;83.48;99530.70;1710313;83;20976;-78
2021/12/29 01:16:16;;;;;;;7.53;5.23;;;;;;;-5.63;83.41;99525.22;1688549;83;22216;-76
2021/12/29 01:18:27;;;;;;;15.83;6.40;;;;;;;-5.63;83.14;99521.29;1700574;83;21085;-77
2021/12/29 01:20:53;;;;;;;9.97;6.13;;;;;;;-5.63;83.12;99525.22;1699110;83;21495;-75
2021/12/29 01:23:19;;;;;;;9.23;5.70;;;;;;;-5.60;83.12;99510.98;1700679;83;21001;-76
2021/12/29 01:25:46;;;;;;;8.50;7.07;;;;;;;-5.63;83.02;99509.50;1722758;82;21099;-76
2021/12/29 01:28:13;;;;;;;9.57;6.90;;;;;;;-5.63;83.08;99508.19;1737130;82;21550;-76
2021/12/29 01:30:40;;;;;;;9.13;6.23;;;;;;;-5.58;83.12;99507.73;1681261;85;21052;-80
2021/12/29 01:33:08;;;;;;;10.60;7.20;;;;;;;-5.54;83.14;99508.59;1710588;83;21117;-79
2021/12/29 01:35:37;;;;;;;10.67;6.20;;;;;;;-5.47;83.19;99508.81;1709193;82;20909;-71
2021/12/29 01:38:04;;;;;;;8.20;6.03;;;;;;;-5.33;83.18;99504.33;1715097;83;21538;-72
2021/12/29 01:40:31;;;;;;;7.77;5.80;;;;;;;-5.26;82.74;99513.22;1715337;83;21091;-71
2021/12/29 01:42:58;;;;;;;6.93;5.73;;;;;;;-5.25;82.53;99516.66;1730538;82;21037;-72
2021/12/29 01:45:25;;;;;;;9.27;5.67;;;;;;;-5.33;82.34;99515.64;1746610;82;21175;-70
2021/12/29 01:47:53;;;;;;;7.33;5.40;;;;;;;-5.32;82.45;99515.95;1746381;81;20974;-72
2021/12/29 01:50:20;;;;;;;7.27;6.13;;;;;;;-5.33;82.39;99520.88;1746617;81;21504;-71
2021/12/29 01:52:55;;;;;;;8.03;6.37;;;;;;;-5.43;82.41;99525.39;1729489;81;20894;-71
2021/12/29 01:55:15;;;;;;;9.20;6.23;;;;;;;-5.51;82.52;99524.48;1742766;82;21029;-70
2021/12/29 01:57:43;;;;;;;7.10;5.80;;;;;;;-5.47;82.76;99528.47;1733392;80;21191;-73
2021/12/29 02:00:14;;;;;;;9.50;6.93;;;;;;;-5.42;82.80;99523.59;1696422;83;20997;-71
2021/12/29 02:02:40;;;;;;;10.77;5.53;;;;;;;-5.37;82.77;99518.72;1717977;82;20989;-78
2021/12/29 02:05:08;;;;;;;8.17;5.80;;;;;;;-5.30;82.81;99516.64;1717027;83;21047;-77
2021/12/29 02:07:37;;;;;;;8.20;6.47;;;;;;;-5.25;82.74;99512.73;1674064;83;20961;-73
2021/12/29 02:10:05;;;;;;;8.47;6.07;;;;;;;-5.28;82.44;99511.25;1716196;83;21180;-73
2021/12/29 02:12:33;;;;;;;8.73;7.20;;;;;;;-5.30;82.54;99511.39;1672649;82;21020;-76
2021/12/29 02:14:59;;;;;;;9.17;6.00;;;;;;;-5.33;82.58;99506.47;1695578;83;21051;-77
2021/12/29 02:17:26;;;;;;;7.33;5.67;;;;;;;-5.35;82.65;99501.03;1695433;83;21617;-73
2021/12/29 02:19:53;;;;;;;8.87;6.20;;;;;;;-5.31;82.79;99490.58;1695476;83;21035;-72
2021/12/29 02:22:31;;;;;;;7.80;4.90;;;;;;;-5.27;82.76;99484.88;1716039;83;21534;-71
2021/12/29 02:25:06;;;;;;;9.80;5.90;;;;;;;-5.25;82.65;99483.90;1740900;82;20927;-73
2021/12/29 02:27:22;;;;;;;6.33;4.40;;;;;;;-5.24;82.56;99481.63;1724304;81;21511;-72
2021/12/29 02:29:48;;;;;;;6.20;5.27;;;;;;;-5.23;82.67;99482.78;1741547;81;20982;-75
2021/12/29 02:32:15;;;;;;;9.57;5.10;;;;;;;-5.21;82.38;99486.05;1727799;82;21008;-75
2021/12/29 02:34:42;;;;;;;8.17;5.40;;;;;;;-5.24;82.33;99477.20;1715983;83;21149;-79
2021/12/29 02:37:08;;;;;;;11.00;6.63;;;;;;;-5.23;82.46;99482.78;1715983;83;21487;-71
2021/12/29 02:39:37;;;;;;;8.83;6.00;;;;;;;-5.20;82.49;99481.64;1695399;83;20951;-71
2021/12/29 02:42:05;;;;;;;8.00;5.37;;;;;;;-5.17;82.49;99476.08;1716169;82;20974;-76
2021/12/29 02:44:39;;;;;;;11.93;7.70;;;;;;;-5.12;82.43;99473.33;1696577;83;21017;-81
2021/12/29 02:47:02;;;;;;;5.00;4.00;;;;;;;-5.11;82.33;99476.29;1718135;83;21135;-77
2021/12/29 02:49:28;;;;;;;8.17;5.37;;;;;;;-5.13;82.04;99470.88;1701556;82;21528;-77
2021/12/29 02:51:55;;;;;;;7.50;4.87;;;;;;;-5.19;82.14;99468.88;1720163;82;21058;-77
2021/12/29 02:54:23;;;;;;;8.53;5.67;;;;;;;-5.23;82.33;99462.30;1750429;82;20945;-79
2021/12/29 02:56:54;;;;;;;9.40;6.47;;;;;;;-5.22;82.40;99473.92;1747231;81;21553;-73
2021/12/29 02:59:19;;;;;;;7.13;4.93;;;;;;;-5.21;82.40;99468.20;1719928;83;21186;-80
2021/12/29 03:01:46;;;;;;;9.27;6.23;;;;;;;-5.17;82.48;99469.52;1748276;81;20912;-81
2021/12/29 03:04:12;;;;;;;12.23;6.10;;;;;;;-5.16;82.41;99460.20;1737609;82;21079;-81
2021/12/29 03:06:39;;;;;;;8.50;5.90;;;;;;;-5.13;82.38;99459.09;1750508;82;21083;-79
2021/12/29 03:09:08;;;;;;;10.93;6.17;;;;;;;-5.08;82.47;99465.48;1749890;81;20948;-75
2021/12/29 03:11:35;;;;;;;7.13;5.07;;;;;;;-5.02;82.27;99462.73;1748546;81;21959;-74
2021/12/29 03:14:01;;;;;;;8.03;4.90;;;;;;;-4.96;82.25;99465.56;1744647;81;21552;-75
2021/12/29 03:16:28;;;;;;;7.33;5.47;;;;;;;-4.90;82.06;99457.08;1750461;81;21549;-79
2021/12/29 03:18:55;;;;;;;7.00;5.10;;;;;;;-4.93;81.68;99453.92;1726868;82;21587;-75
2021/12/29 03:21:21;;;;;;;9.67;6.23;;;;;;;-4.92;81.74;99451.64;1750408;81;21561;-74
2021/12/29 03:23:49;;;;;;;7.73;5.63;;;;;;;-4.89;81.73;99447.38;1738696;81;21360;-75
2021/12/29 03:26:17;;;;;;;8.73;5.70;;;;;;;-4.88;81.46;99449.86;1747747;81;21031;-78
2021/12/29 03:28:43;;;;;;;7.03;5.03;;;;;;;-4.93;81.25;99452.61;1736507;82;20979;-75
2021/12/29 03:31:14;;;;;;;5.77;4.60;;;;;;;-4.92;81.30;99451.16;1730036;81;21047;-76
2021/12/29 03:33:38;;;;;;;8.60;5.40;;;;;;;-4.93;81.21;99454.75;1703098;80;21182;-77
2021/12/29 03:36:04;;;;;;;7.73;6.07;;;;;;;-4.98;81.19;99449.64;1733482;81;21886;-76
2021/12/29 03:38:36;;;;;;;4.67;4.13;;;;;;;-5.04;81.28;99449.80;1708204;82;21051;-74
2021/12/29 03:41:05;;;;;;;7.07;5.13;;;;;;;-5.00;81.50;99448.50;1750856;81;21608;-77
2021/12/29 03:43:34;;;;;;;11.30;5.97;;;;;;;-5.00;81.37;99452.92;1724955;82;21592;-79
2021/12/29 03:46:03;;;;;;;6.93;6.07;;;;;;;-5.00;81.50;99455.06;1714529;83;21049;-80
2021/12/29 03:48:30;;;;;;;8.53;5.77;;;;;;;-4.94;81.46;99446.55;1745845;82;22276;-81
2021/12/29 03:50:58;;;;;;;8.13;4.73;;;;;;;-4.90;81.27;99445.28;1718140;83;21564;-77
2021/12/29 03:53:26;;;;;;;8.07;5.43;;;;;;;-4.88;81.11;99441.16;1750565;82;21051;-77
2021/12/29 03:55:53;;;;;;;8.63;5.97;;;;;;;-4.86;81.03;99441.84;1730849;82;21620;-79
2021/12/29 03:58:22;;;;;;;10.10;7.17;;;;;;;-4.89;80.70;99447.38;1750699;82;21235;-82
2021/12/29 04:00:49;;;;;;;10.50;6.10;;;;;;;-4.87;80.77;99443.64;1747119;81;21004;-79
2021/12/29 04:03:18;;;;;;;13.50;6.30;;;;;;;-4.89;80.49;99450.00;1736251;82;20992;-79
2021/12/29 04:05:46;;;;;;;7.27;5.83;;;;;;;-4.89;80.66;99446.89;1750994;82;21045;-78
2021/12/29 04:08:12;;;;;;;8.20;6.30;;;;;;;-4.88;80.51;99446.41;1737454;82;21008;-76
2021/12/29 04:10:39;;;;;;;10.10;7.33;;;;;;;-4.85;80.43;99443.48;1750889;82;21009;-73
2021/12/29 04:13:05;;;;;;;9.70;5.90;;;;;;;-4.84;80.44;99447.25;1750438;82;23372;-76
2021/12/29 04:15:32;;;;;;;6.87;5.30;;;;;;;-4.74;80.36;99440.56;1749911;82;21572;-79
2021/12/29 04:17:59;;;;;;;11.50;6.60;;;;;;;-4.82;79.65;99442.34;1750558;81;21619;-75
2021/12/29 04:23:14;;;;;;;9.90;6.20;;;;;;;-4.93;79.96;99439.50;1730417;82;21020;-75
2021/12/29 04:25:45;;;;;;;10.77;6.73;;;;;;;-5.01;79.98;99435.05;1703077;82;21583;-74
2021/12/29 04:28:15;;;;;;;14.43;8.70;;;;;;;-5.06;80.10;99427.33;1701988;82;21334;-75
2021/12/29 04:30:39;;;;;;;14.30;6.50;;;;;;;-5.11;80.25;99440.08;1750116;81;21160;-74
2021/12/29 04:33:06;;;;;;;10.30;6.10;;;;;;;-5.14;80.48;99431.22;1730981;81;21150;-76
2021/12/29 04:35:32;;;;;;;10.50;7.10;;;;;;;-5.10;80.63;99435.17;1749592;82;21012;-74
2021/12/29 04:37:58;;;;;;;12.00;7.40;;;;;;;-5.01;80.73;99440.78;1705820;82;21153;-74
2021/12/29 04:40:25;;;;;;;8.07;6.77;;;;;;;-5.01;80.35;99442.92;1719092;83;21555;-75
2021/12/29 04:42:51;;;;;;;11.27;7.53;;;;;;;-5.00;80.35;99445.06;1750245;81;21037;-74
2021/12/29 04:45:18;;;;;;;14.23;8.90;;;;;;;-4.98;80.31;99445.70;1747552;81;21007;-73
2021/12/29 04:47:46;;;;;;;15.23;10.03;;;;;;;-4.99;80.25;99450.64;1748682;82;21111;-76
2021/12/29 04:52:55;;;;;;;10.87;8.43;;;;;;;-5.05;80.50;99453.39;1749006;81;20937;-74
2021/12/29 04:55:21;;;;;;;12.53;9.30;;;;;;;-5.09;80.32;99449.93;1683341;83;21041;-76
2021/12/29 04:57:48;;;;;;;12.97;8.93;;;;;;;-5.08;80.46;99456.30;1693815;84;21029;-76
2021/12/29 05:00:15;;;;;;;14.03;8.67;;;;;;;-5.03;80.62;99459.28;1677627;85;21016;-76
2021/12/29 05:02:42;;;;;;;11.83;9.43;;;;;;;-5.00;80.64;99462.92;1700400;83;21153;-76
2021/12/29 05:10:39;;;;;;;10.93;6.20;;;;;;;-4.82;80.36;99469.39;1718820;83;21505;-73
2021/12/29 05:13:05;;;;;;;10.70;7.67;;;;;;;-4.77;80.06;99460.56;1719690;82;21003;-74
2021/12/29 05:15:31;;;;;;;7.17;5.67;;;;;;;-4.87;79.73;99462.48;1748107;81;21196;-74
2021/12/29 05:17:59;;;;;;;7.07;6.37;;;;;;;-4.87;79.95;99458.06;1748859;81;21096;-74
2021/12/29 05:20:27;;;;;;;10.30;7.33;;;;;;;-4.89;79.92;99455.25;1748860;82;21123;-74
2021/12/29 05:22:56;;;;;;;11.53;7.70;;;;;;;-4.90;80.03;99464.12;1749038;81;20934;-76
2021/12/29 05:25:24;;;;;;;9.40;6.83;;;;;;;-4.85;80.20;99456.12;1707127;84;20994;-75
2021/12/29 05:27:51;;;;;;;16.67;11.40;;;;;;;-4.82;79.90;99452.83;1724666;83;21200;-74
2021/12/29 05:30:19;;;;;;;18.60;11.37;;;;;;;-4.83;80.10;99454.63;1738447;82;21043;-73
2021/12/29 05:32:45;;;;;;;13.03;8.53;;;;;;;-4.76;80.20;99459.59;1719444;82;21517;-73
2021/12/29 05:35:12;;;;;;;9.17;7.40;;;;;;;-4.69;80.11;99463.20;1715823;82;21103;-74
2021/12/29 05:37:39;;;;;;;9.03;6.83;;;;;;;-4.68;79.74;99464.03;1700859;83;21032;-73
2021/12/29 05:40:07;;;;;;;9.33;6.87;;;;;;;-4.73;79.59;99463.69;1719344;82;21104;-74
2021/12/29 05:42:34;;;;;;;9.60;7.00;;;;;;;-4.72;79.65;99464.84;1724795;83;20959;-73
2021/12/29 05:45:06;;;;;;;14.07;8.93;;;;;;;-4.72;79.60;99463.53;1746223;80;21018;-75
2021/12/29 05:47:34;;;;;;;14.03;9.63;;;;;;;-4.67;79.65;99463.06;1739114;82;21029;-79
2021/12/29 05:50:05;;;;;;;12.17;8.53;;;;;;;-4.65;79.35;99463.22;1724261;83;20951;-79
2021/12/29 05:52:32;;;;;;;15.30;8.77;;;;;;;-4.68;79.43;99460.92;1744016;82;21074;-77
2021/12/29 05:54:58;;;;;;;17.53;9.23;;;;;;;-4.79;79.33;99463.82;1720985;82;21057;-73
2021/12/29 05:57:25;;;;;;;19.37;12.10;;;;;;;-4.87;79.50;99455.44;1689158;84;21521;-73
2021/12/29 05:59:51;;;;;;;20.30;10.97;;;;;;;-4.93;79.62;99460.48;1688625;84;21526;-74
2021/12/29 06:02:17;;;;;;;21.83;13.80;;;;;;;-4.91;79.93;99467.71;1707462;84;21064;-75
2021/12/29 06:04:44;;;;;;;19.00;11.67;;;;;;;-4.89;79.91;99461.31;1709975;83;21358;-74
2021/12/29 06:07:11;;;;;;;19.47;12.07;;;;;;;-4.89;79.96;99463.12;1736469;82;21372;-74
2021/12/29 06:09:38;;;;;;;24.60;14.10;;;;;;;-4.90;79.89;99464.12;1701938;83;20975;-74
2021/12/29 06:12:06;;;;;;;39.40;23.07;;;;;;;-4.89;79.97;99465.73;1738421;82;21993;-71
2021/12/29 06:14:33;;;;;;;52.33;29.77;;;;;;;-4.88;80.06;99460.34;1719442;82;21053;-71
2021/12/29 06:17:00;;;;;;;22.10;14.37;;;;;;;-4.89;80.13;99453.45;1724582;83;21066;-72
2021/12/29 06:19:26;;;;;;;11.40;10.20;;;;;;;-4.87;80.20;99454.13;1717484;82;21048;-73
2021/12/29 06:21:53;;;;;;;25.43;14.37;;;;;;;-4.84;80.13;99455.60;1738761;82;21053;-73
2021/12/29 06:24:19;;;;;;;18.73;11.63;;;;;;;-4.80;80.10;99453.51;1738483;82;21587;-72
2021/12/29 06:26:46;;;;;;;22.87;12.17;;;;;;;-4.75;80.03;99457.30;1738486;82;21131;-70
2021/12/29 06:29:12;;;;;;;14.33;11.10;;;;;;;-4.72;79.87;99458.78;1715882;82;21030;-73
2021/12/29 06:31:43;;;;;;;14.40;10.10;;;;;;;-4.75;79.80;99456.48;1717625;83;20953;-71
2021/12/29 06:34:08;;;;;;;15.60;9.97;;;;;;;-4.81;79.76;99450.06;1741973;82;20942;-72
2021/12/29 06:36:34;;;;;;;19.83;11.00;;;;;;;-4.84;79.94;99448.56;1734838;82;21631;-73
2021/12/29 06:39:00;;;;;;;9.80;7.53;;;;;;;-4.80;79.97;99450.88;1748997;82;21006;-72
2021/12/29 06:41:27;;;;;;;11.07;8.83;;;;;;;-4.81;79.89;99450.55;1738376;82;22595;-75
2021/12/29 06:43:53;;;;;;;13.83;9.83;;;;;;;-4.82;79.98;99450.20;1707393;84;21533;-76
2021/12/29 06:46:20;;;;;;;11.50;8.43;;;;;;;-4.79;80.21;99444.15;1755615;80;21063;-75
2021/12/29 06:48:46;;;;;;;12.93;8.73;;;;;;;-4.73;80.20;99454.02;1715365;83;21015;-75
2021/12/29 06:51:13;;;;;;;12.63;9.43;;;;;;;-4.71;80.14;99456.00;1685207;83;21097;-76
2021/12/29 06:53:39;;;;;;;21.70;11.80;;;;;;;-4.71;80.08;99461.25;1709964;81;22187;-76
2021/12/29 06:56:06;;;;;;;17.10;10.13;;;;;;;-4.79;80.24;99461.69;1755065;81;21106;-74
2021/12/29 06:58:33;;;;;;;17.30;11.73;;;;;;;-4.84;80.64;99462.16;1755965;81;21026;-74
2021/12/29 07:01:00;;;;;;;11.33;8.60;;;;;;;-4.84;80.77;99464.78;1736441;82;21566;-74
2021/12/29 07:03:26;;;;;;;11.87;9.33;;;;;;;-4.82;80.89;99468.08;1740251;81;21106;-76
2021/12/29 07:05:54;;;;;;;11.47;8.37;;;;;;;-4.82;80.98;99463.32;1713437;81;22051;-73
2021/12/29 07:08:21;;;;;;;19.60;10.83;;;;;;;-4.77;81.12;99468.44;1766259;80;20999;-73
2021/12/29 07:10:48;;;;;;;17.93;10.30;;;;;;;-4.71;81.13;99467.81;1731765;81;21009;-71
2021/12/29 07:13:15;;;;;;;19.27;11.27;;;;;;;-4.69;81.08;99467.63;1726738;82;21002;-73
2021/12/29 07:15:41;;;;;;;17.20;11.33;;;;;;;-4.78;81.16;99468.09;1756279;81;20912;-74
2021/12/29 07:18:07;;;;;;;21.03;12.07;;;;;;;-4.79;81.41;99473.48;1756185;79;21052;-73
2021/12/29 07:20:35;;;;;;;19.03;11.87;;;;;;;-4.76;81.68;99483.20;1756193;81;21038;-76
2021/12/29 07:23:02;;;;;;;22.30;14.17;;;;;;;-4.72;81.85;99471.41;1704064;83;20991;-77
2021/12/29 07:25:29;;;;;;;16.13;11.60;;;;;;;-4.71;82.01;99469.61;1709856;81;21043;-76
2021/12/29 07:27:55;;;;;;;17.43;11.23;;;;;;;-4.64;82.13;99479.78;1713301;82;21121;-78
2021/12/29 07:30:22;;;;;;;12.97;9.83;;;;;;;-4.67;82.24;99478.80;1735443;82;21977;-73
2021/12/29 07:32:49;;;;;;;19.43;14.33;;;;;;;-4.75;82.21;99484.02;1756072;81;20980;-72
2021/12/29 07:35:16;;;;;;;21.47;15.27;;;;;;;-4.84;82.61;99483.96;1720601;83;20975;-75
2021/12/29 07:37:43;;;;;;;16.00;11.67;;;;;;;-4.81;82.64;99479.39;1712211;83;20988;-76
2021/12/29 07:40:11;;;;;;;14.50;10.93;;;;;;;-4.79;82.67;99478.73;1712134;82;21134;-75
2021/12/29 07:42:39;;;;;;;18.33;12.40;;;;;;;-4.72;82.76;99467.95;1734657;81;21193;-76
2021/12/29 07:45:08;;;;;;;14.73;11.20;;;;;;;-4.63;82.59;99467.00;1735325;81;21043;-75
2021/12/29 07:47:39;;;;;;;26.97;15.73;;;;;;;-4.66;82.30;99468.16;1698340;82;20999;-76
2021/12/29 07:50:06;;;;;;;30.10;17.63;;;;;;;-4.67;82.42;99467.82;1721198;81;21112;-80
2021/12/29 07:52:32;;;;;;;19.40;10.33;;;;;;;-4.67;82.43;99467.00;1701264;83;21059;-74
2021/12/29 07:54:59;;;;;;;14.03;10.20;;;;;;;-4.59;82.57;99463.08;1705959;84;21196;-76
2021/12/29 07:57:25;;;;;;;18.93;11.43;;;;;;;-4.52;82.38;99468.04;1702459;84;21050;-71
2021/12/29 07:59:51;;;;;;;23.50;14.77;;;;;;;-4.54;82.02;99467.36;1696957;84;21036;-73
2021/12/29 08:02:18;;;;;;;14.87;10.10;;;;;;;-4.55;82.02;99472.27;1708033;83;21032;-81
2021/12/29 08:04:47;;;;;;;14.33;9.83;;;;;;;-4.47;82.19;99473.63;1694264;84;21302;-73
2021/12/29 08:07:14;;;;;;;24.23;12.57;;;;;;;-4.43;81.95;99469.22;1694547;84;21103;-72
2021/12/29 08:09:41;;;;;;;25.83;15.97;;;;;;;-4.35;81.59;99467.09;1685887;83;21051;-75
2021/12/29 08:12:08;;;;;;;28.33;16.10;;;;;;;-4.42;81.09;99470.05;1714645;83;21482;-73
2021/12/29 08:14:35;;;;;;;19.03;12.17;;;;;;;-4.45;81.34;99476.41;1688775;83;20971;-77
2021/12/29 08:17:02;;;;;;;23.63;15.77;;;;;;;-4.37;81.43;99474.33;1709190;81;21087;-74
2021/12/29 08:19:28;;;;;;;21.37;14.30;;;;;;;-4.30;81.32;99475.80;1712577;82;21184;-76
2021/12/29 08:21:55;;;;;;;17.80;12.13;;;;;;;-4.28;81.12;99468.59;1705912;84;21091;-73
2021/12/29 08:24:21;;;;;;;17.43;11.37;;;;;;;-4.25;81.10;99464.33;1715848;83;21008;-73
2021/12/29 08:26:47;;;;;;;16.73;11.00;;;;;;;-4.23;80.79;99468.94;1707807;84;21126;-74
2021/12/29 08:29:14;;;;;;;15.67;10.30;;;;;;;-4.20;80.65;99473.38;1744385;82;21580;-72
2021/12/29 08:31:40;;;;;;;15.93;10.10;;;;;;;-4.19;80.38;99478.96;1680190;82;21100;-73
2021/12/29 08:34:06;;;;;;;27.33;12.73;;;;;;;-4.25;80.09;99473.52;1712201;83;22218;-73
2021/12/29 08:36:33;;;;;;;26.27;13.03;;;;;;;-4.23;80.21;99480.27;1704008;82;21067;-75
2021/12/29 08:38:59;;;;;;;12.77;9.40;;;;;;;-4.17;80.12;99474.34;1699873;84;21504;-75
2021/12/29 08:41:25;;;;;;;14.33;9.03;;;;;;;-4.18;79.77;99464.03;1707920;83;21096;-76
2021/12/29 08:43:52;;;;;;;25.27;13.90;;;;;;;-4.18;79.48;99467.97;1715616;82;21041;-75
2021/12/29 08:46:20;;;;;;;20.20;14.40;;;;;;;-4.15;79.66;99468.45;1714332;83;20988;-74
2021/12/29 08:48:46;;;;;;;19.17;12.27;;;;;;;-4.07;79.56;99472.89;1723359;83;21070;-76
2021/12/29 08:51:13;;;;;;;14.17;10.50;;;;;;;-4.09;78.93;99470.45;1728836;82;20996;-76
2021/12/29 08:53:39;;;;;;;24.37;14.97;;;;;;;-4.14;78.81;99466.17;1715125;82;21079;-74
2021/12/29 08:56:06;;;;;;;21.53;12.87;;;;;;;-4.22;78.75;99458.78;1718952;83;21503;-75
2021/12/29 08:58:32;;;;;;;35.07;22.33;;;;;;;-4.23;79.08;99459.27;1737390;82;20977;-77
2021/12/29 09:01:00;;;;;;;42.57;26.30;;;;;;;-4.13;78.99;99453.87;1730619;79;20980;-76
2021/12/29 09:03:26;;;;;;;40.10;25.10;;;;;;;-4.06;78.65;99451.73;1689860;84;21525;-75
2021/12/29 09:05:53;;;;;;;21.67;17.43;;;;;;;-4.06;78.45;99454.36;1729566;82;21031;-73
2021/12/29 09:08:21;;;;;;;22.47;15.47;;;;;;;-4.05;78.56;99453.38;1698903;83;21564;-82
2021/12/29 09:10:47;;;;;;;27.13;18.07;;;;;;;-4.10;78.42;99458.30;1691411;83;21269;-74
2021/12/29 09:13:15;;;;;;;24.03;13.20;;;;;;;-4.10;78.76;99456.16;1708813;83;20901;-76
2021/12/29 09:15:42;;;;;;;16.87;10.40;;;;;;;-4.08;78.61;99455.52;1699244;83;20978;-75
2021/12/29 09:18:09;;;;;;;18.20;13.03;;;;;;;-4.06;78.22;99458.30;1701189;83;21131;-76
2021/12/29 09:20:43;;;;;;;16.33;10.47;;;;;;;-4.11;78.04;99463.70;1743616;79;20921;-73
2021/12/29 09:23:08;;;;;;;27.73;15.17;;;;;;;-4.12;78.27;99467.30;1709933;81;21045;-79
2021/12/29 09:25:37;;;;;;;22.30;14.17;;;;;;;-4.06;78.15;99464.03;1725070;81;21340;-76
2021/12/29 09:28:04;;;;;;;21.00;13.67;;;;;;;-4.05;77.88;99460.44;1740925;81;21084;-77
2021/12/29 09:30:33;;;;;;;28.57;14.33;;;;;;;-4.07;78.15;99468.46;1713960;81;21059;-79
2021/12/29 09:33:00;;;;;;;30.43;16.77;;;;;;;-4.10;78.13;99478.48;1736083;82;21085;-75
2021/12/29 09:35:28;;;;;;;18.50;13.47;;;;;;;-4.13;78.19;99477.01;1719267;82;20923;-75
2021/12/29 09:37:55;;;;;;;18.60;11.37;;;;;;;-4.09;78.34;99478.33;1737016;82;21347;-73
2021/12/29 09:40:22;;;;;;;12.53;9.00;;;;;;;-4.02;78.04;99475.37;1736379;82;21087;-75
2021/12/29 09:42:52;;;;;;;10.57;9.47;;;;;;;-3.96;77.91;99479.16;1694310;84;21028;-74
2021/12/29 09:45:19;;;;;;;12.77;9.17;;;;;;;-3.96;77.62;99476.04;1730657;81;21563;-75
2021/12/29 09:47:45;;;;;;;13.17;10.23;;;;;;;-3.97;77.66;99472.25;1702985;83;20977;-74
2021/12/29 09:50:15;;;;;;;8.13;7.33;;;;;;;-3.96;77.75;99473.41;1724125;82;21025;-73
2021/12/29 09:52:42;;;;;;;9.40;8.13;;;;;;;-3.87;77.88;99469.47;1710867;83;21033;-74
2021/12/29 09:55:12;;;;;;;11.93;9.40;;;;;;;-3.80;77.68;99475.73;1724367;83;20957;-74
2021/12/29 09:57:45;;;;;;;11.00;9.20;;;;;;;-3.83;77.27;99474.23;1724443;83;21491;-77
2021/12/29 10:00:25;;;;;;;11.35;10.08;;;;;;;-3.85;77.39;99472.77;1724404;83;21012;-81
2021/12/29 10:02:54;;;;;;;13.10;9.30;;;;;;;-3.83;77.32;99476.03;1706116;83;21004;-79
2021/12/29 10:05:22;;;;;;;12.47;8.97;;;;;;;-3.76;77.33;99477.04;1724474;83;21008;-79
2021/12/29 10:08:07;;;;;;;10.57;9.00;;;;;;;-3.73;77.20;99479.33;1703547;83;21080;-77
2021/12/29 10:10:38;;;;;;;15.77;10.73;;;;;;;-3.73;76.93;99474.08;1724177;83;21551;-77
2021/12/29 10:13:07;;;;;;;13.00;9.17;;;;;;;-3.72;77.03;99473.09;1738387;82;21530;-84
2021/12/29 10:15:40;;;;;;;17.77;10.37;;;;;;;-3.75;76.99;99458.98;1748240;82;20968;-81
2021/12/29 10:18:17;;;;;;;23.98;13.08;;;;;;;-3.73;77.23;99459.13;1748834;81;21051;-80
2021/12/29 10:20:57;;;;;;;44.10;23.13;;;;;;;-3.74;77.14;99462.74;1740006;82;21004;-81
2021/12/29 10:23:30;;;;;;;21.83;12.37;;;;;;;-3.72;77.39;99463.41;1748472;81;21534;-80
2021/12/29 10:26:23;;;;;;;26.20;15.63;;;;;;;-3.64;77.37;99462.09;1744373;82;21545;-80
2021/12/29 10:29:00;;;;;;;22.00;13.62;;;;;;;-3.60;76.93;99462.60;1743774;82;20945;-78
2021/12/29 10:31:29;;;;;;;22.13;12.77;;;;;;;-3.64;76.76;99463.89;1736668;81;21603;-76
2021/12/29 10:34:06;;;;;;;15.20;12.07;;;;;;;-3.73;76.40;99472.27;1715690;83;21525;-80
2021/12/29 10:36:41;;;;;;;17.70;12.70;;;;;;;-3.90;76.82;99472.44;1712955;83;21176;-76
2021/12/29 10:39:24;;;;;;;12.77;10.07;;;;;;;-3.94;77.17;99469.32;1710577;81;21710;-81
2021/12/29 10:41:55;;;;;;;16.62;11.55;;;;;;;-3.88;77.48;99467.85;1715455;81;20982;-75
2021/12/29 10:44:34;;;;;;;21.30;14.87;;;;;;;-3.84;77.43;99461.28;1716542;81;20955;-72
2021/12/29 10:47:18;;;;;;;19.80;13.23;;;;;;;-3.79;77.33;99452.42;1729125;82;21075;-73
2021/12/29 10:50:01;;;;;;;19.23;16.20;;;;;;;-3.79;77.43;99451.11;1694900;82;21489;-73
2021/12/29 10:52:44;;;;;;;23.63;16.60;;;;;;;-3.83;77.50;99463.72;1717819;82;21495;-76
2021/12/29 10:55:35;;;;;;;29.42;16.52;;;;;;;-3.83;77.55;99462.91;1673391;85;21036;-77
2021/12/29 10:58:17;;;;;;;34.47;19.63;;;;;;;-3.76;77.77;99457.34;1686849;85;21558;-81
2021/12/29 11:01:08;;;;;;;24.33;15.97;;;;;;;-3.66;77.59;99457.51;1691132;83;21559;-81
2021/12/29 11:03:36;;;;;;;24.70;14.50;;;;;;;-3.54;77.58;99461.42;1656187;86;22199;-81
2021/12/29 11:06:03;;;;;;;19.17;12.57;;;;;;;-3.45;77.23;99460.92;1657170;83;21140;-82
2021/12/29 11:08:51;;;;;;;14.17;11.60;;;;;;;-3.42;76.84;99467.67;1692862;83;21063;-85
2021/12/29 11:11:20;;;;;;;17.10;11.47;;;;;;;-3.44;76.75;99467.83;1684796;84;20920;-80
2021/12/29 11:13:46;;;;;;;17.33;11.53;;;;;;;-3.44;76.61;99468.31;1701352;84;21623;-83
2021/12/29 11:16:17;;;;;;;15.47;11.23;;;;;;;-3.48;76.21;99467.02;1688999;83;21001;-81
2021/12/29 11:18:50;;;;;;;15.70;10.60;;;;;;;-3.55;76.39;99471.61;1650509;84;20963;-80
2021/12/29 11:21:25;;;;;;;12.97;9.67;;;;;;;-3.65;76.40;99468.35;1691871;84;21068;-76
2021/12/29 11:23:51;;;;;;;19.27;11.07;;;;;;;-3.72;76.79;99466.53;1690577;82;21040;-80
2021/12/29 11:26:34;;;;;;;18.30;16.10;;;;;;;-3.84;77.13;99475.24;1665568;84;21269;-80
2021/12/29 11:29:08;;;;;;;16.70;14.85;;;;;;;-3.86;77.42;99479.00;1697882;82;27129;-92
2021/12/29 11:31:41;;;;;;;19.37;14.77;;;;;;;-3.86;77.42;99479.00;1684131;83;22162;-90
2021/12/29 11:34:25;;;;;;;32.10;16.50;;;;;;;-3.90;77.32;99479.00;1673341;83;21034;-92
2021/12/29 11:37:11;;;;;;;18.47;13.77;;;;;;;-3.88;77.51;99479.16;1667700;83;21115;-78
2021/12/29 11:39:43;;;;;;;22.33;14.27;;;;;;;-3.79;77.57;99476.86;1686011;83;20986;-82
2021/12/29 11:42:10;;;;;;;16.20;11.93;;;;;;;-3.81;77.63;99469.66;1686726;83;21074;-80